sensor_id;sensor_type;location;lat;lon;timestamp;pressure;altitude;pressure_sealevel;temperature;humidity
59951;BME280;45812;53.540;9.774;2023-02-25T00:00:09;99849.28;;;2.16;100.00
59951;BME280;45812;53.540;9.774;2023-02-25T00:02:41;99851.75;;;2.07;100.00
59951;BME280;45812;53.540;9.774;2023-02-25T00:05:07;99855.63;;;2.13;100.00
59951;BME280;45812;53.540;9.774;2023-02-25T00:07:32;99851.00;;;2.26;100.00
59951;BME280;45812;53.540;9.774;2023-02-25T00:09:57;99862.00;;;2.20;100.00
59951;BME280;45812;53.540;9.774;2023-02-25T00:12:23;99860.56;;;2.37;100.00
59951;BME280;45812;53.540;9.774;2023-02-25T00:14:48;99860.16;;;2.41;100.00
59951;BME280;45812;53.540;9.774;2023-02-25T00:17:13;99872.06;;;2.46;100.00
59951;BME280;45812;53.540;9.774;2023-02-25T00:19:38;99863.38;;;2.55;100.00
59951;BME280;45812;53.540;9.774;2023-02-25T00:22:04;99865.72;;;2.58;100.00
59951;BME280;45812;53.540;9.774;2023-02-25T00:24:29;99870.44;;;2.54;100.00
59951;BME280;45812;53.540;9.774;2023-02-25T00:26:54;99873.59;;;2.48;100.00
59951;BME280;45812;53.540;9.774;2023-02-25T00:29:20;99878.78;;;2.29;100.00
59951;BME280;45812;53.540;9.774;2023-02-25T00:31:46;99884.16;;;2.27;100.00
59951;BME280;45812;53.540;9.774;2023-02-25T00:34:11;99891.72;;;2.21;100.00
59951;BME280;45812;53.540;9.774;2023-02-25T00:36:37;99891.28;;;2.16;100.00
59951;BME280;45812;53.540;9.774;2023-02-25T00:39:03;99900.56;;;2.20;100.00
59951;BME280;45812;53.540;9.774;2023-02-25T00:41:29;99896.53;;;2.16;100.00
59951;BME280;45812;53.540;9.774;2023-02-25T00:43:57;99890.34;;;2.17;100.00
59951;BME280;45812;53.540;9.774;2023-02-25T00:46:23;99899.31;;;2.14;100.00
59951;BME280;45812;53.540;9.774;2023-02-25T00:48:49;99905.72;;;2.00;100.00
59951;BME280;45812;53.540;9.774;2023-02-25T00:51:17;99894.22;;;1.92;100.00
59951;BME280;45812;53.540;9.774;2023-02-25T00:53:43;99922.19;;;1.81;100.00
59951;BME280;45812;53.540;9.774;2023-02-25T00:56:12;99905.47;;;1.82;100.00
59951;BME280;45812;53.540;9.774;2023-02-25T00:58:42;99913.28;;;1.94;100.00
59951;BME280;45812;53.540;9.774;2023-02-25T01:01:26;99920.72;;;1.89;100.00
59951;BME280;45812;53.540;9.774;2023-02-25T01:03:52;99921.59;;;1.99;100.00
59951;BME280;45812;53.540;9.774;2023-02-25T01:06:20;99924.22;;;1.99;100.00
59951;BME280;45812;53.540;9.774;2023-02-25T01:08:45;99925.19;;;1.98;100.00
59951;BME280;45812;53.540;9.774;2023-02-25T01:11:16;99932.50;;;1.94;100.00
59951;BME280;45812;53.540;9.774;2023-02-25T01:13:46;99937.28;;;2.10;100.00
59951;BME280;45812;53.540;9.774;2023-02-25T01:16:19;99934.31;;;2.24;100.00
59951;BME280;45812;53.540;9.774;2023-02-25T01:18:45;99934.75;;;2.29;100.00
59951;BME280;45812;53.540;9.774;2023-02-25T01:21:16;99943.69;;;2.48;100.00
59951;BME280;45812;53.540;9.774;2023-02-25T01:23:43;99936.84;;;2.66;100.00
59951;BME280;45812;53.540;9.774;2023-02-25T01:26:08;99949.44;;;2.72;100.00
59951;BME280;45812;53.540;9.774;2023-02-25T01:28:33;99948.66;;;2.91;99.94
59951;BME280;45812;53.540;9.774;2023-02-25T01:30:59;99949.22;;;2.94;97.39
59951;BME280;45812;53.540;9.774;2023-02-25T01:33:24;99953.66;;;2.94;96.31
59951;BME280;45812;53.540;9.774;2023-02-25T01:35:49;99958.81;;;3.05;97.02
59951;BME280;45812;53.540;9.774;2023-02-25T01:38:14;99960.91;;;3.21;94.96
59951;BME280;45812;53.540;9.774;2023-02-25T01:40:40;99955.75;;;3.10;94.89
59951;BME280;45812;53.540;9.774;2023-02-25T01:43:05;99964.75;;;3.07;94.56
59951;BME280;45812;53.540;9.774;2023-02-25T01:45:32;99970.97;;;3.06;94.60
59951;BME280;45812;53.540;9.774;2023-02-25T01:48:02;99966.00;;;3.13;94.45
59951;BME280;45812;53.540;9.774;2023-02-25T01:50:36;99972.97;;;3.23;94.08
59951;BME280;45812;53.540;9.774;2023-02-25T01:53:04;99979.19;;;3.22;93.66
59951;BME280;45812;53.540;9.774;2023-02-25T01:55:30;99981.13;;;3.20;93.29
59951;BME280;45812;53.540;9.774;2023-02-25T01:57:57;99976.00;;;3.19;93.78
59951;BME280;45812;53.540;9.774;2023-02-25T02:00:24;99979.16;;;3.13;92.51
59951;BME280;45812;53.540;9.774;2023-02-25T02:02:51;99980.00;;;3.23;91.59
59951;BME280;45812;53.540;9.774;2023-02-25T02:05:17;100000.19;;;3.13;90.99
59951;BME280;45812;53.540;9.774;2023-02-25T02:07:43;99993.72;;;3.17;90.47
59951;BME280;45812;53.540;9.774;2023-02-25T02:10:09;99998.09;;;3.07;91.17
59951;BME280;45812;53.540;9.774;2023-02-25T02:12:38;100002.44;;;3.27;90.85
59951;BME280;45812;53.540;9.774;2023-02-25T02:15:07;100005.44;;;3.13;89.79
59951;BME280;45812;53.540;9.774;2023-02-25T02:20:14;100014.16;;;3.13;89.34
59951;BME280;45812;53.540;9.774;2023-02-25T02:23:05;100013.19;;;3.04;89.89
59951;BME280;45812;53.540;9.774;2023-02-25T02:32:14;100022.69;;;2.96;91.28
59951;BME280;45812;53.540;9.774;2023-02-25T02:35:07;100020.03;;;2.86;92.33
59951;BME280;45812;53.540;9.774;2023-02-25T02:37:54;100021.28;;;2.82;91.76
59951;BME280;45812;53.540;9.774;2023-02-25T02:40:38;100027.38;;;2.92;92.05
59951;BME280;45812;53.540;9.774;2023-02-25T02:43:10;100036.06;;;2.83;90.30
59951;BME280;45812;53.540;9.774;2023-02-25T02:45:57;100046.13;;;2.78;89.50
59951;BME280;45812;53.540;9.774;2023-02-25T02:50:55;100048.78;;;2.57;88.60
59951;BME280;45812;53.540;9.774;2023-02-25T02:53:32;100058.66;;;2.65;87.89
59951;BME280;45812;53.540;9.774;2023-02-25T02:56:03;100054.38;;;2.64;87.54
59951;BME280;45812;53.540;9.774;2023-02-25T02:58:58;100062.97;;;2.66;86.27
59951;BME280;45812;53.540;9.774;2023-02-25T03:01:29;100060.94;;;2.49;87.43
59951;BME280;45812;53.540;9.774;2023-02-25T03:03:59;100063.28;;;2.52;88.23
59951;BME280;45812;53.540;9.774;2023-02-25T03:06:35;100070.47;;;2.50;88.28
59951;BME280;45812;53.540;9.774;2023-02-25T03:09:09;100074.44;;;2.44;89.30
59951;BME280;45812;53.540;9.774;2023-02-25T03:11:36;100067.63;;;2.41;88.03
59951;BME280;45812;53.540;9.774;2023-02-25T03:14:01;100073.09;;;2.29;88.12
59951;BME280;45812;53.540;9.774;2023-02-25T03:16:36;100080.16;;;2.28;88.69
59951;BME280;45812;53.540;9.774;2023-02-25T03:19:07;100075.84;;;2.27;88.23
59951;BME280;45812;53.540;9.774;2023-02-25T03:21:40;100077.53;;;2.28;88.36
59951;BME280;45812;53.540;9.774;2023-02-25T03:24:12;100078.25;;;2.19;88.32
59951;BME280;45812;53.540;9.774;2023-02-25T03:26:41;100089.69;;;2.29;87.49
59951;BME280;45812;53.540;9.774;2023-02-25T03:29:15;100096.16;;;2.25;88.29
59951;BME280;45812;53.540;9.774;2023-02-25T03:31:55;100107.75;;;2.43;86.90
59951;BME280;45812;53.540;9.774;2023-02-25T03:34:28;100104.78;;;2.37;87.38
59951;BME280;45812;53.540;9.774;2023-02-25T03:37:02;100119.03;;;2.34;86.92
59951;BME280;45812;53.540;9.774;2023-02-25T03:39:32;100113.91;;;2.33;87.03
59951;BME280;45812;53.540;9.774;2023-02-25T03:42:01;100111.78;;;2.48;87.92
59951;BME280;45812;53.540;9.774;2023-02-25T03:44:32;100117.19;;;2.46;87.86
59951;BME280;45812;53.540;9.774;2023-02-25T03:47:01;100126.31;;;2.31;87.98
59951;BME280;45812;53.540;9.774;2023-02-25T03:49:33;100130.63;;;2.32;87.87
59951;BME280;45812;53.540;9.774;2023-02-25T03:52:00;100127.53;;;2.27;88.50
59951;BME280;45812;53.540;9.774;2023-02-25T03:54:28;100137.22;;;2.26;89.05
59951;BME280;45812;53.540;9.774;2023-02-25T03:56:53;100141.31;;;2.40;89.18
59951;BME280;45812;53.540;9.774;2023-02-25T03:59:19;100147.78;;;2.36;89.65
59951;BME280;45812;53.540;9.774;2023-02-25T04:01:46;100148.22;;;2.41;90.06
59951;BME280;45812;53.540;9.774;2023-02-25T04:04:12;100153.38;;;2.42;90.13
59951;BME280;45812;53.540;9.774;2023-02-25T04:06:38;100163.28;;;2.39;91.24
59951;BME280;45812;53.540;9.774;2023-02-25T04:09:03;100158.22;;;2.26;92.31
59951;BME280;45812;53.540;9.774;2023-02-25T04:11:30;100161.16;;;2.33;92.26
59951;BME280;45812;53.540;9.774;2023-02-25T04:13:55;100172.38;;;2.35;92.27
59951;BME280;45812;53.540;9.774;2023-02-25T04:16:20;100180.13;;;2.36;92.59
59951;BME280;45812;53.540;9.774;2023-02-25T04:18:46;100180.00;;;2.38;91.76
59951;BME280;45812;53.540;9.774;2023-02-25T04:21:32;100177.56;;;2.25;93.60
59951;BME280;45812;53.540;9.774;2023-02-25T04:23:59;100182.19;;;2.22;93.52
59951;BME280;45812;53.540;9.774;2023-02-25T04:26:24;100183.16;;;2.21;93.29
59951;BME280;45812;53.540;9.774;2023-02-25T04:28:50;100181.63;;;2.18;94.13
59951;BME280;45812;53.540;9.774;2023-02-25T04:31:15;100189.63;;;2.17;94.77
59951;BME280;45812;53.540;9.774;2023-02-25T04:33:40;100184.75;;;2.12;95.69
59951;BME280;45812;53.540;9.774;2023-02-25T04:38:54;100199.97;;;2.29;95.12
59951;BME280;45812;53.540;9.774;2023-02-25T04:41:21;100180.66;;;2.19;95.97
59951;BME280;45812;53.540;9.774;2023-02-25T04:43:47;100191.88;;;2.21;95.93
59951;BME280;45812;53.540;9.774;2023-02-25T04:46:12;100188.25;;;2.33;95.49
59951;BME280;45812;53.540;9.774;2023-02-25T04:48:38;100185.31;;;2.27;95.78
59951;BME280;45812;53.540;9.774;2023-02-25T04:51:04;100191.72;;;2.34;95.22
59951;BME280;45812;53.540;9.774;2023-02-25T04:53:30;100195.94;;;2.25;96.29
59951;BME280;45812;53.540;9.774;2023-02-25T04:55:56;100195.31;;;2.33;95.27
59951;BME280;45812;53.540;9.774;2023-02-25T04:58:21;100193.13;;;2.38;95.93
59951;BME280;45812;53.540;9.774;2023-02-25T05:00:46;100188.69;;;2.50;95.43
59951;BME280;45812;53.540;9.774;2023-02-25T05:03:14;100199.38;;;2.58;95.43
59951;BME280;45812;53.540;9.774;2023-02-25T05:05:39;100191.03;;;2.53;95.12
59951;BME280;45812;53.540;9.774;2023-02-25T05:08:04;100188.44;;;2.41;95.14
59951;BME280;45812;53.540;9.774;2023-02-25T05:10:30;100188.38;;;2.32;96.05
59951;BME280;45812;53.540;9.774;2023-02-25T05:12:55;100198.97;;;2.41;96.64
59951;BME280;45812;53.540;9.774;2023-02-25T05:15:20;100198.47;;;2.48;96.52
59951;BME280;45812;53.540;9.774;2023-02-25T05:17:46;100216.94;;;2.57;96.51
59951;BME280;45812;53.540;9.774;2023-02-25T05:20:12;100211.50;;;2.49;95.02
59951;BME280;45812;53.540;9.774;2023-02-25T05:22:38;100216.03;;;2.47;95.89
59951;BME280;45812;53.540;9.774;2023-02-25T05:25:05;100215.47;;;2.43;95.36
59951;BME280;45812;53.540;9.774;2023-02-25T05:27:31;100221.22;;;2.58;95.96
59951;BME280;45812;53.540;9.774;2023-02-25T05:29:57;100218.56;;;2.37;95.90
59951;BME280;45812;53.540;9.774;2023-02-25T05:32:23;100222.66;;;2.30;96.82
59951;BME280;45812;53.540;9.774;2023-02-25T05:34:48;100220.72;;;2.32;96.94
59951;BME280;45812;53.540;9.774;2023-02-25T05:37:13;100219.41;;;2.38;96.50
59951;BME280;45812;53.540;9.774;2023-02-25T05:39:39;100225.03;;;2.33;96.53
59951;BME280;45812;53.540;9.774;2023-02-25T05:42:04;100229.63;;;2.52;96.24
59951;BME280;45812;53.540;9.774;2023-02-25T05:44:29;100225.22;;;2.41;95.16
59951;BME280;45812;53.540;9.774;2023-02-25T05:46:55;100236.38;;;2.34;95.57
59951;BME280;45812;53.540;9.774;2023-02-25T05:49:20;100228.72;;;2.42;95.83
59951;BME280;45812;53.540;9.774;2023-02-25T05:51:47;100237.75;;;2.49;95.04
59951;BME280;45812;53.540;9.774;2023-02-25T05:54:13;100242.88;;;2.51;94.66
59951;BME280;45812;53.540;9.774;2023-02-25T05:56:38;100243.00;;;2.49;94.17
59951;BME280;45812;53.540;9.774;2023-02-25T05:59:04;100246.47;;;2.50;94.21
59951;BME280;45812;53.540;9.774;2023-02-25T06:01:29;100245.41;;;2.41;94.17
59951;BME280;45812;53.540;9.774;2023-02-25T06:03:56;100256.53;;;2.33;94.56
59951;BME280;45812;53.540;9.774;2023-02-25T06:06:22;100251.66;;;2.29;95.16
59951;BME280;45812;53.540;9.774;2023-02-25T06:08:48;100258.84;;;2.27;94.23
59951;BME280;45812;53.540;9.774;2023-02-25T06:11:24;100270.00;;;2.40;94.17
59951;BME280;45812;53.540;9.774;2023-02-25T06:13:51;100273.13;;;2.45;93.92
59951;BME280;45812;53.540;9.774;2023-02-25T06:16:17;100272.88;;;2.37;93.54
59951;BME280;45812;53.540;9.774;2023-02-25T06:18:42;100284.00;;;2.29;94.23
59951;BME280;45812;53.540;9.774;2023-02-25T06:21:10;100283.13;;;2.40;94.59
59951;BME280;45812;53.540;9.774;2023-02-25T06:23:38;100292.47;;;2.44;95.25
59951;BME280;45812;53.540;9.774;2023-02-25T06:26:05;100284.47;;;2.46;95.31
59951;BME280;45812;53.540;9.774;2023-02-25T06:28:32;100298.44;;;2.46;94.86
59951;BME280;45812;53.540;9.774;2023-02-25T06:30:57;100298.44;;;2.46;95.32
59951;BME280;45812;53.540;9.774;2023-02-25T06:33:22;100307.34;;;2.55;94.83
59951;BME280;45812;53.540;9.774;2023-02-25T06:35:52;100304.28;;;2.38;95.10
59951;BME280;45812;53.540;9.774;2023-02-25T06:38:18;100316.69;;;2.36;95.65
59951;BME280;45812;53.540;9.774;2023-02-25T06:40:44;100316.56;;;2.38;96.37
59951;BME280;45812;53.540;9.774;2023-02-25T06:43:09;100318.03;;;2.42;95.77
59951;BME280;45812;53.540;9.774;2023-02-25T06:45:35;100322.66;;;2.50;94.84
59951;BME280;45812;53.540;9.774;2023-02-25T06:48:00;100325.66;;;2.45;94.93
59951;BME280;45812;53.540;9.774;2023-02-25T06:50:25;100330.53;;;2.61;94.28
59951;BME280;45812;53.540;9.774;2023-02-25T06:52:51;100337.31;;;2.52;95.41
59951;BME280;45812;53.540;9.774;2023-02-25T06:55:16;100348.06;;;2.60;95.50
59951;BME280;45812;53.540;9.774;2023-02-25T06:57:41;100350.34;;;2.54;96.08
59951;BME280;45812;53.540;9.774;2023-02-25T07:00:07;100357.25;;;2.55;96.73
59951;BME280;45812;53.540;9.774;2023-02-25T07:02:33;100359.50;;;2.59;97.24
59951;BME280;45812;53.540;9.774;2023-02-25T07:04:58;100363.59;;;2.52;97.14
59951;BME280;45812;53.540;9.774;2023-02-25T07:07:25;100373.72;;;2.57;97.89
59951;BME280;45812;53.540;9.774;2023-02-25T07:09:50;100370.66;;;2.52;97.78
59951;BME280;45812;53.540;9.774;2023-02-25T07:12:16;100382.00;;;2.52;97.37
59951;BME280;45812;53.540;9.774;2023-02-25T07:14:41;100381.88;;;2.54;96.91
59951;BME280;45812;53.540;9.774;2023-02-25T07:17:06;100378.66;;;2.50;97.60
59951;BME280;45812;53.540;9.774;2023-02-25T07:19:31;100392.13;;;2.57;97.54
59951;BME280;45812;53.540;9.774;2023-02-25T07:21:56;100405.75;;;2.62;97.55
59951;BME280;45812;53.540;9.774;2023-02-25T07:24:22;100414.22;;;2.65;98.27
59951;BME280;45812;53.540;9.774;2023-02-25T07:26:48;100415.66;;;2.69;98.30
59951;BME280;45812;53.540;9.774;2023-02-25T07:29:13;100418.53;;;2.66;99.41
59951;BME280;45812;53.540;9.774;2023-02-25T07:31:39;100427.81;;;2.82;98.12
59951;BME280;45812;53.540;9.774;2023-02-25T07:34:05;100423.88;;;2.87;97.46
59951;BME280;45812;53.540;9.774;2023-02-25T07:36:32;100432.09;;;2.94;94.60
59951;BME280;45812;53.540;9.774;2023-02-25T07:38:59;100430.28;;;2.94;95.80
59951;BME280;45812;53.540;9.774;2023-02-25T07:41:25;100444.38;;;3.04;95.10
59951;BME280;45812;53.540;9.774;2023-02-25T07:43:51;100436.69;;;3.13;93.98
59951;BME280;45812;53.540;9.774;2023-02-25T07:46:17;100447.19;;;3.24;93.95
59951;BME280;45812;53.540;9.774;2023-02-25T07:48:42;100451.69;;;3.33;93.52
59951;BME280;45812;53.540;9.774;2023-02-25T07:51:10;100442.97;;;3.32;89.97
59951;BME280;45812;53.540;9.774;2023-02-25T07:53:37;100450.72;;;3.34;89.81
59951;BME280;45812;53.540;9.774;2023-02-25T07:56:03;100453.50;;;3.32;90.14
59951;BME280;45812;53.540;9.774;2023-02-25T07:58:30;100455.16;;;3.33;89.41
59951;BME280;45812;53.540;9.774;2023-02-25T08:00:55;100465.34;;;3.38;88.08
59951;BME280;45812;53.540;9.774;2023-02-25T08:03:21;100470.22;;;3.43;88.84
59951;BME280;45812;53.540;9.774;2023-02-25T08:05:49;100465.25;;;3.60;87.87
59951;BME280;45812;53.540;9.774;2023-02-25T08:08:15;100467.50;;;3.65;84.57
59951;BME280;45812;53.540;9.774;2023-02-25T08:10:41;100464.97;;;3.63;84.59
59951;BME280;45812;53.540;9.774;2023-02-25T08:13:07;100467.56;;;3.75;84.16
59951;BME280;45812;53.540;9.774;2023-02-25T08:15:32;100470.44;;;3.72;83.10
59951;BME280;45812;53.540;9.774;2023-02-25T08:17:57;100476.78;;;3.69;82.42
59951;BME280;45812;53.540;9.774;2023-02-25T08:20:23;100477.81;;;3.57;81.58
59951;BME280;45812;53.540;9.774;2023-02-25T08:22:48;100488.16;;;3.70;79.97
59951;BME280;45812;53.540;9.774;2023-02-25T08:25:13;100489.81;;;3.71;77.86
59951;BME280;45812;53.540;9.774;2023-02-25T08:27:38;100493.78;;;3.76;75.97
59951;BME280;45812;53.540;9.774;2023-02-25T08:30:04;100490.56;;;3.73;75.49
59951;BME280;45812;53.540;9.774;2023-02-25T08:32:33;100492.75;;;3.88;75.24
59951;BME280;45812;53.540;9.774;2023-02-25T08:34:59;100492.56;;;3.80;75.14
59951;BME280;45812;53.540;9.774;2023-02-25T08:37:24;100500.75;;;3.87;74.91
59951;BME280;45812;53.540;9.774;2023-02-25T08:39:53;100503.09;;;4.01;75.04
59951;BME280;45812;53.540;9.774;2023-02-25T08:42:18;100497.25;;;3.98;75.58
59951;BME280;45812;53.540;9.774;2023-02-25T08:44:44;100500.91;;;4.06;73.36
59951;BME280;45812;53.540;9.774;2023-02-25T08:47:09;100512.59;;;4.34;73.40
59951;BME280;45812;53.540;9.774;2023-02-25T08:49:34;100515.69;;;4.39;71.92
59951;BME280;45812;53.540;9.774;2023-02-25T08:52:00;100516.13;;;4.44;70.24
59951;BME280;45812;53.540;9.774;2023-02-25T08:54:25;100529.66;;;4.30;71.06
59951;BME280;45812;53.540;9.774;2023-02-25T08:56:51;100539.53;;;4.38;70.80
59951;BME280;45812;53.540;9.774;2023-02-25T08:59:19;100541.50;;;4.66;70.25
59951;BME280;45812;53.540;9.774;2023-02-25T09:01:44;100544.41;;;4.94;70.47
59951;BME280;45812;53.540;9.774;2023-02-25T09:04:15;100544.75;;;5.20;68.74
59951;BME280;45812;53.540;9.774;2023-02-25T09:06:40;100551.59;;;5.22;67.21
59951;BME280;45812;53.540;9.774;2023-02-25T09:09:05;100557.19;;;4.98;66.28
59951;BME280;45812;53.540;9.774;2023-02-25T09:11:31;100574.06;;;4.86;67.64
59951;BME280;45812;53.540;9.774;2023-02-25T09:13:57;100578.06;;;4.80;68.85
59951;BME280;45812;53.540;9.774;2023-02-25T09:16:23;100589.06;;;4.85;69.67
59951;BME280;45812;53.540;9.774;2023-02-25T09:18:49;100585.47;;;4.86;68.82
59951;BME280;45812;53.540;9.774;2023-02-25T09:21:15;100594.25;;;4.97;67.88
59951;BME280;45812;53.540;9.774;2023-02-25T09:23:41;100596.66;;;5.09;65.68
59951;BME280;45812;53.540;9.774;2023-02-25T09:26:06;100598.94;;;5.24;67.17
59951;BME280;45812;53.540;9.774;2023-02-25T09:28:33;100605.13;;;5.53;67.85
59951;BME280;45812;53.540;9.774;2023-02-25T09:30:58;100615.78;;;5.82;66.39
59951;BME280;45812;53.540;9.774;2023-02-25T09:33:24;100620.94;;;5.93;63.00
59951;BME280;45812;53.540;9.774;2023-02-25T09:35:50;100623.06;;;6.19;62.34
59951;BME280;45812;53.540;9.774;2023-02-25T09:38:15;100626.81;;;6.06;61.05
59951;BME280;45812;53.540;9.774;2023-02-25T09:40:45;100624.88;;;6.18;61.31
59951;BME280;45812;53.540;9.774;2023-02-25T09:43:28;100639.22;;;6.16;59.86
59951;BME280;45812;53.540;9.774;2023-02-25T09:46:04;100631.25;;;6.64;57.26
59951;BME280;45812;53.540;9.774;2023-02-25T09:48:33;100649.31;;;6.88;56.29
59951;BME280;45812;53.540;9.774;2023-02-25T09:51:10;100643.31;;;6.95;55.82
59951;BME280;45812;53.540;9.774;2023-02-25T09:53:48;100653.41;;;6.53;56.28
59951;BME280;45812;53.540;9.774;2023-02-25T09:56:17;100667.03;;;6.29;58.02
59951;BME280;45812;53.540;9.774;2023-02-25T09:58:49;100669.81;;;6.47;58.16
59951;BME280;45812;53.540;9.774;2023-02-25T10:02:05;100673.25;;;6.86;55.48
59951;BME280;45812;53.540;9.774;2023-02-25T10:04:22;100671.84;;;8.03;52.88
59951;BME280;45812;53.540;9.774;2023-02-25T10:06:50;100681.38;;;8.14;51.61
59951;BME280;45812;53.540;9.774;2023-02-25T10:09:36;100683.81;;;8.25;50.97
59951;BME280;45812;53.540;9.774;2023-02-25T10:23:08;100706.56;;;7.82;49.29
59951;BME280;45812;53.540;9.774;2023-02-25T10:25:41;100707.03;;;7.68;50.99
59951;BME280;45812;53.540;9.774;2023-02-25T10:28:14;100709.28;;;7.26;51.28
59951;BME280;45812;53.540;9.774;2023-02-25T10:30:49;100721.72;;;6.96;51.43
59951;BME280;45812;53.540;9.774;2023-02-25T10:33:23;100731.19;;;6.60;51.81
59951;BME280;45812;53.540;9.774;2023-02-25T10:35:58;100731.31;;;6.40;51.70
59951;BME280;45812;53.540;9.774;2023-02-25T10:38:27;100738.41;;;6.29;52.83
59951;BME280;45812;53.540;9.774;2023-02-25T10:40:55;100739.09;;;6.31;53.32
59951;BME280;45812;53.540;9.774;2023-02-25T10:43:24;100749.00;;;6.49;53.83
59951;BME280;45812;53.540;9.774;2023-02-25T10:46:00;100747.19;;;6.49;52.02
59951;BME280;45812;53.540;9.774;2023-02-25T10:48:28;100749.97;;;6.38;53.48
59951;BME280;45812;53.540;9.774;2023-02-25T10:51:04;100763.50;;;6.54;53.83
59951;BME280;45812;53.540;9.774;2023-02-25T10:53:32;100758.88;;;7.05;52.84
59951;BME280;45812;53.540;9.774;2023-02-25T10:55:58;100763.78;;;7.09;50.95
59951;BME280;45812;53.540;9.774;2023-02-25T10:58:27;100774.50;;;6.69;51.23
59951;BME280;45812;53.540;9.774;2023-02-25T11:01:16;100790.84;;;6.15;51.93
59951;BME280;45812;53.540;9.774;2023-02-25T11:06:25;100792.56;;;6.35;54.43
59951;BME280;45812;53.540;9.774;2023-02-25T11:08:52;100799.38;;;6.37;54.62
59951;BME280;45812;53.540;9.774;2023-02-25T11:11:24;100805.56;;;7.06;54.06
59951;BME280;45812;53.540;9.774;2023-02-25T11:14:13;100792.88;;;8.12;48.61
59951;BME280;45812;53.540;9.774;2023-02-25T11:16:40;100787.47;;;8.32;47.44
59951;BME280;45812;53.540;9.774;2023-02-25T11:19:13;100791.63;;;8.44;46.29
59951;BME280;45812;53.540;9.774;2023-02-25T11:21:40;100800.31;;;8.36;45.73
59951;BME280;45812;53.540;9.774;2023-02-25T11:24:14;100818.59;;;8.39;46.03
59951;BME280;45812;53.540;9.774;2023-02-25T11:26:43;100810.50;;;10.08;41.95
59951;BME280;45812;53.540;9.774;2023-02-25T11:29:20;100825.06;;;13.63;36.62
59951;BME280;45812;53.540;9.774;2023-02-25T11:31:50;100821.13;;;15.76;33.25
59951;BME280;45812;53.540;9.774;2023-02-25T11:34:22;100821.31;;;14.17;34.68
59951;BME280;45812;53.540;9.774;2023-02-25T11:36:47;100820.00;;;15.92;32.57
59951;BME280;45812;53.540;9.774;2023-02-25T11:39:22;100814.47;;;13.85;35.66
59951;BME280;45812;53.540;9.774;2023-02-25T11:41:52;100817.28;;;12.31;37.51
59951;BME280;45812;53.540;9.774;2023-02-25T11:44:19;100823.44;;;11.60;39.38
59951;BME280;45812;53.540;9.774;2023-02-25T11:46:54;100835.78;;;11.04;38.99
59951;BME280;45812;53.540;9.774;2023-02-25T11:52:23;100836.81;;;10.53;40.72
59951;BME280;45812;53.540;9.774;2023-02-25T11:57:46;100834.59;;;15.33;32.44
59951;BME280;45812;53.540;9.774;2023-02-25T12:06:05;100827.94;;;14.87;32.69
59951;BME280;45812;53.540;9.774;2023-02-25T12:09:09;100837.50;;;17.31;29.65
59951;BME280;45812;53.540;9.774;2023-02-25T12:17:19;100844.47;;;12.66;35.27
59951;BME280;45812;53.540;9.774;2023-02-25T12:23:13;100844.06;;;16.54;29.83
59951;BME280;45812;53.540;9.774;2023-02-25T12:26:00;100840.81;;;19.02;27.57
59951;BME280;45812;53.540;9.774;2023-02-25T12:29:05;100849.19;;;22.90;21.89
59951;BME280;45812;53.540;9.774;2023-02-25T12:31:52;100842.41;;;25.20;19.58
59951;BME280;45812;53.540;9.774;2023-02-25T12:34:39;100848.13;;;27.02;18.31
59951;BME280;45812;53.540;9.774;2023-02-25T12:37:09;100843.66;;;28.33;15.61
59951;BME280;45812;53.540;9.774;2023-02-25T12:45:00;100841.25;;;28.86;15.30
59951;BME280;45812;53.540;9.774;2023-02-25T12:50:07;100854.03;;;21.13;21.47
59951;BME280;45812;53.540;9.774;2023-02-25T12:56:17;100855.47;;;17.11;24.96
59951;BME280;45812;53.540;9.774;2023-02-25T12:59:16;100855.66;;;21.02;21.47
59951;BME280;45812;53.540;9.774;2023-02-25T13:01:59;100842.16;;;24.94;18.62
59951;BME280;45812;53.540;9.774;2023-02-25T13:04:37;100840.50;;;27.91;16.43
59951;BME280;45812;53.540;9.774;2023-02-25T13:15:12;100856.38;;;26.40;15.94
59951;BME280;45812;53.540;9.774;2023-02-25T13:18:07;100856.31;;;28.09;15.18
59951;BME280;45812;53.540;9.774;2023-02-25T13:23:11;100872.94;;;29.03;14.76
59951;BME280;45812;53.540;9.774;2023-02-25T13:25:49;100869.22;;;25.97;15.84
59951;BME280;45812;53.540;9.774;2023-02-25T13:31:09;100887.88;;;20.74;19.57
59951;BME280;45812;53.540;9.774;2023-02-25T13:33:46;100883.16;;;22.41;19.13
59951;BME280;45812;53.540;9.774;2023-02-25T13:42:24;100887.03;;;25.46;15.83
59951;BME280;45812;53.540;9.774;2023-02-25T13:47:55;100901.84;;;19.34;20.90
59951;BME280;45812;53.540;9.774;2023-02-25T13:50:44;100924.41;;;17.32;23.33
59951;BME280;45812;53.540;9.774;2023-02-25T14:01:59;100918.75;;;22.56;18.20
59951;BME280;45812;53.540;9.774;2023-02-25T14:04:37;100921.59;;;23.30;17.53
59951;BME280;45812;53.540;9.774;2023-02-25T14:15:46;100930.00;;;24.07;17.46
59951;BME280;45812;53.540;9.774;2023-02-25T14:18:22;100932.97;;;21.58;19.89
59951;BME280;45812;53.540;9.774;2023-02-25T14:29:10;100946.53;;;19.87;21.39
59951;BME280;45812;53.540;9.774;2023-02-25T14:31:50;100944.34;;;22.49;19.33
59951;BME280;45812;53.540;9.774;2023-02-25T14:39:56;100967.94;;;16.59;23.99
59951;BME280;45812;53.540;9.774;2023-02-25T14:45:31;100980.28;;;13.16;27.16
59951;BME280;45812;53.540;9.774;2023-02-25T14:48:05;100995.03;;;12.65;28.26
59951;BME280;45812;53.540;9.774;2023-02-25T14:50:57;100982.88;;;15.85;24.65
59951;BME280;45812;53.540;9.774;2023-02-25T14:56:20;100991.34;;;21.06;18.96
59951;BME280;45812;53.540;9.774;2023-02-25T15:04:24;101002.81;;;18.23;22.16
59951;BME280;45812;53.540;9.774;2023-02-25T15:10:12;101025.91;;;14.22;28.30
59951;BME280;45812;53.540;9.774;2023-02-25T15:16:09;101033.31;;;11.92;34.79
59951;BME280;45812;53.540;9.774;2023-02-25T15:21:39;101040.19;;;10.68;36.40
59951;BME280;45812;53.540;9.774;2023-02-25T15:24:30;101040.25;;;10.50;36.75
59951;BME280;45812;53.540;9.774;2023-02-25T15:26:56;101042.44;;;10.55;37.44